sensor_id;sensor_type;location;lat;lon;timestamp;pressure;altitude;pressure_sealevel;temperature
60966;BMP180;46834;51.100;6.886;2022-09-24T00:01:19;100951.00;;;18.40
60966;BMP180;46834;51.100;6.886;2022-09-24T00:03:52;100965.00;;;18.40
60966;BMP180;46834;51.100;6.886;2022-09-24T00:06:19;100959.00;;;18.40
60966;BMP180;46834;51.100;6.886;2022-09-24T00:08:47;100942.00;;;18.40
60966;BMP180;46834;51.100;6.886;2022-09-24T00:11:14;100937.00;;;18.40
60966;BMP180;46834;51.100;6.886;2022-09-24T00:13:40;100926.00;;;18.30
60966;BMP180;46834;51.100;6.886;2022-09-24T00:16:10;100930.00;;;18.30
60966;BMP180;46834;51.100;6.886;2022-09-24T00:18:37;100930.00;;;18.30
60966;BMP180;46834;51.100;6.886;2022-09-24T00:21:32;100931.00;;;18.20
60966;BMP180;46834;51.100;6.886;2022-09-24T00:24:03;100935.00;;;18.20
60966;BMP180;46834;51.100;6.886;2022-09-24T00:26:29;100943.00;;;18.20
60966;BMP180;46834;51.100;6.886;2022-09-24T00:29:19;100926.00;;;18.20
60966;BMP180;46834;51.100;6.886;2022-09-24T00:31:46;100943.00;;;18.20
60966;BMP180;46834;51.100;6.886;2022-09-24T00:34:11;100938.00;;;18.10
60966;BMP180;46834;51.100;6.886;2022-09-24T00:36:37;100938.00;;;18.10
60966;BMP180;46834;51.100;6.886;2022-09-24T00:39:04;100948.00;;;18.10
60966;BMP180;46834;51.100;6.886;2022-09-24T00:41:34;100934.00;;;18.10
60966;BMP180;46834;51.100;6.886;2022-09-24T00:44:00;100947.00;;;18.10
60966;BMP180;46834;51.100;6.886;2022-09-24T00:46:46;100951.00;;;18.10
60966;BMP180;46834;51.100;6.886;2022-09-24T00:49:19;100955.00;;;18.00
60966;BMP180;46834;51.100;6.886;2022-09-24T00:51:49;100954.00;;;18.00
60966;BMP180;46834;51.100;6.886;2022-09-24T00:54:22;100951.00;;;18.00
60966;BMP180;46834;51.100;6.886;2022-09-24T00:56:52;100945.00;;;18.00
60966;BMP180;46834;51.100;6.886;2022-09-24T00:59:22;100939.00;;;18.00
60966;BMP180;46834;51.100;6.886;2022-09-24T01:01:51;100946.00;;;18.00
60966;BMP180;46834;51.100;6.886;2022-09-24T01:04:19;100940.00;;;18.00
60966;BMP180;46834;51.100;6.886;2022-09-24T01:06:49;100935.00;;;18.00
60966;BMP180;46834;51.100;6.886;2022-09-24T01:09:21;100928.00;;;18.00
60966;BMP180;46834;51.100;6.886;2022-09-24T01:12:18;100929.00;;;17.90
60966;BMP180;46834;51.100;6.886;2022-09-24T01:17:47;100920.00;;;17.90
60966;BMP180;46834;51.100;6.886;2022-09-24T01:23:43;100914.00;;;17.80
60966;BMP180;46834;51.100;6.886;2022-09-24T01:26:36;100912.00;;;17.90
60966;BMP180;46834;51.100;6.886;2022-09-24T01:30:01;100900.00;;;17.80
60966;BMP180;46834;51.100;6.886;2022-09-24T01:32:52;100907.00;;;17.80
60966;BMP180;46834;51.100;6.886;2022-09-24T01:35:37;100914.00;;;17.80
60966;BMP180;46834;51.100;6.886;2022-09-24T01:38:13;100911.00;;;17.80
60966;BMP180;46834;51.100;6.886;2022-09-24T01:40:42;100899.00;;;17.90
60966;BMP180;46834;51.100;6.886;2022-09-24T01:43:12;100895.00;;;17.90
60966;BMP180;46834;51.100;6.886;2022-09-24T01:45:39;100898.00;;;17.90
60966;BMP180;46834;51.100;6.886;2022-09-24T01:48:06;100901.00;;;17.90
60966;BMP180;46834;51.100;6.886;2022-09-24T01:50:43;100901.00;;;17.90
60966;BMP180;46834;51.100;6.886;2022-09-24T01:53:19;100896.00;;;17.80
60966;BMP180;46834;51.100;6.886;2022-09-24T01:55:51;100900.00;;;17.80
60966;BMP180;46834;51.100;6.886;2022-09-24T01:58:32;100904.00;;;17.80
60966;BMP180;46834;51.100;6.886;2022-09-24T02:01:11;100903.00;;;17.80
60966;BMP180;46834;51.100;6.886;2022-09-24T02:03:51;100896.00;;;17.80
60966;BMP180;46834;51.100;6.886;2022-09-24T02:06:30;100889.00;;;17.70
60966;BMP180;46834;51.100;6.886;2022-09-24T02:08:58;100893.00;;;17.80
60966;BMP180;46834;51.100;6.886;2022-09-24T02:11:25;100889.00;;;17.70
60966;BMP180;46834;51.100;6.886;2022-09-24T02:14:11;100894.00;;;17.70
60966;BMP180;46834;51.100;6.886;2022-09-24T02:16:45;100900.00;;;17.70
60966;BMP180;46834;51.100;6.886;2022-09-24T02:19:16;100890.00;;;17.70
60966;BMP180;46834;51.100;6.886;2022-09-24T02:21:45;100892.00;;;17.70
60966;BMP180;46834;51.100;6.886;2022-09-24T02:24:19;100884.00;;;17.60
60966;BMP180;46834;51.100;6.886;2022-09-24T02:26:46;100885.00;;;17.70
60966;BMP180;46834;51.100;6.886;2022-09-24T02:29:12;100882.00;;;17.70
60966;BMP180;46834;51.100;6.886;2022-09-24T02:31:42;100879.00;;;17.60
60966;BMP180;46834;51.100;6.886;2022-09-24T02:34:15;100888.00;;;17.60
60966;BMP180;46834;51.100;6.886;2022-09-24T02:37:04;100878.00;;;17.50
60966;BMP180;46834;51.100;6.886;2022-09-24T02:39:30;100872.00;;;17.60
60966;BMP180;46834;51.100;6.886;2022-09-24T02:41:56;100865.00;;;17.60
60966;BMP180;46834;51.100;6.886;2022-09-24T02:44:23;100859.00;;;17.50
60966;BMP180;46834;51.100;6.886;2022-09-24T02:46:49;100866.00;;;17.60
60966;BMP180;46834;51.100;6.886;2022-09-24T02:49:15;100860.00;;;17.50
60966;BMP180;46834;51.100;6.886;2022-09-24T02:51:42;100846.00;;;17.50
60966;BMP180;46834;51.100;6.886;2022-09-24T02:54:09;100861.00;;;17.50
60966;BMP180;46834;51.100;6.886;2022-09-24T02:56:35;100854.00;;;17.50
60966;BMP180;46834;51.100;6.886;2022-09-24T02:59:02;100854.00;;;17.50
60966;BMP180;46834;51.100;6.886;2022-09-24T03:01:30;100852.00;;;17.40
60966;BMP180;46834;51.100;6.886;2022-09-24T03:03:56;100850.00;;;17.40
60966;BMP180;46834;51.100;6.886;2022-09-24T03:06:22;100855.00;;;17.40
60966;BMP180;46834;51.100;6.886;2022-09-24T03:08:52;100843.00;;;17.40
60966;BMP180;46834;51.100;6.886;2022-09-24T03:11:19;100844.00;;;17.40
60966;BMP180;46834;51.100;6.886;2022-09-24T03:13:46;100844.00;;;17.40
60966;BMP180;46834;51.100;6.886;2022-09-24T03:16:12;100836.00;;;17.40
60966;BMP180;46834;51.100;6.886;2022-09-24T03:18:38;100826.00;;;17.40
60966;BMP180;46834;51.100;6.886;2022-09-24T03:21:10;100827.00;;;17.30
60966;BMP180;46834;51.100;6.886;2022-09-24T03:23:37;100823.00;;;17.30
60966;BMP180;46834;51.100;6.886;2022-09-24T03:26:04;100828.00;;;17.30
60966;BMP180;46834;51.100;6.886;2022-09-24T03:28:30;100830.00;;;17.30
60966;BMP180;46834;51.100;6.886;2022-09-24T03:30:56;100828.00;;;17.30
60966;BMP180;46834;51.100;6.886;2022-09-24T03:33:33;100828.00;;;17.30
60966;BMP180;46834;51.100;6.886;2022-09-24T03:36:06;100828.00;;;17.30
60966;BMP180;46834;51.100;6.886;2022-09-24T03:38:33;100816.00;;;17.30
60966;BMP180;46834;51.100;6.886;2022-09-24T03:41:00;100811.00;;;17.30
60966;BMP180;46834;51.100;6.886;2022-09-24T03:43:27;100805.00;;;17.30
60966;BMP180;46834;51.100;6.886;2022-09-24T03:45:53;100804.00;;;17.30
60966;BMP180;46834;51.100;6.886;2022-09-24T03:48:21;100807.00;;;17.20
60966;BMP180;46834;51.100;6.886;2022-09-24T03:50:47;100810.00;;;17.20
60966;BMP180;46834;51.100;6.886;2022-09-24T03:53:14;100797.00;;;17.20
60966;BMP180;46834;51.100;6.886;2022-09-24T03:55:53;100801.00;;;17.20
60966;BMP180;46834;51.100;6.886;2022-09-24T03:58:18;100808.00;;;17.20
60966;BMP180;46834;51.100;6.886;2022-09-24T04:00:44;100815.00;;;17.20
60966;BMP180;46834;51.100;6.886;2022-09-24T04:03:10;100816.00;;;17.20
60966;BMP180;46834;51.100;6.886;2022-09-24T04:05:36;100804.00;;;17.20
60966;BMP180;46834;51.100;6.886;2022-09-24T04:08:03;100809.00;;;17.20
60966;BMP180;46834;51.100;6.886;2022-09-24T04:10:30;100805.00;;;17.20
60966;BMP180;46834;51.100;6.886;2022-09-24T04:12:56;100808.00;;;17.20
60966;BMP180;46834;51.100;6.886;2022-09-24T04:15:22;100808.00;;;17.20
60966;BMP180;46834;51.100;6.886;2022-09-24T04:17:54;100814.00;;;17.10
60966;BMP180;46834;51.100;6.886;2022-09-24T04:20:22;100805.00;;;17.20
60966;BMP180;46834;51.100;6.886;2022-09-24T04:22:53;100810.00;;;17.10
60966;BMP180;46834;51.100;6.886;2022-09-24T04:25:21;100807.00;;;17.20
60966;BMP180;46834;51.100;6.886;2022-09-24T04:27:53;100810.00;;;17.10
60966;BMP180;46834;51.100;6.886;2022-09-24T04:30:20;100813.00;;;17.10
60966;BMP180;46834;51.100;6.886;2022-09-24T04:32:45;100806.00;;;17.10
60966;BMP180;46834;51.100;6.886;2022-09-24T04:35:11;100804.00;;;17.10
60966;BMP180;46834;51.100;6.886;2022-09-24T04:37:37;100799.00;;;17.10
60966;BMP180;46834;51.100;6.886;2022-09-24T04:40:04;100801.00;;;17.10
60966;BMP180;46834;51.100;6.886;2022-09-24T04:42:31;100794.00;;;17.10
60966;BMP180;46834;51.100;6.886;2022-09-24T04:44:57;100800.00;;;17.10
60966;BMP180;46834;51.100;6.886;2022-09-24T04:47:23;100801.00;;;17.10
60966;BMP180;46834;51.100;6.886;2022-09-24T04:49:50;100809.00;;;17.10
60966;BMP180;46834;51.100;6.886;2022-09-24T04:52:16;100805.00;;;17.10
60966;BMP180;46834;51.100;6.886;2022-09-24T04:54:43;100802.00;;;17.10
60966;BMP180;46834;51.100;6.886;2022-09-24T04:57:15;100797.00;;;17.10
60966;BMP180;46834;51.100;6.886;2022-09-24T04:59:41;100797.00;;;17.10
60966;BMP180;46834;51.100;6.886;2022-09-24T05:02:08;100805.00;;;17.10
60966;BMP180;46834;51.100;6.886;2022-09-24T05:04:36;100809.00;;;17.10
60966;BMP180;46834;51.100;6.886;2022-09-24T05:07:03;100799.00;;;17.10
60966;BMP180;46834;51.100;6.886;2022-09-24T05:09:30;100802.00;;;17.10
60966;BMP180;46834;51.100;6.886;2022-09-24T05:11:57;100804.00;;;17.10
60966;BMP180;46834;51.100;6.886;2022-09-24T05:14:24;100798.00;;;17.10
60966;BMP180;46834;51.100;6.886;2022-09-24T05:16:49;100812.00;;;17.10
60966;BMP180;46834;51.100;6.886;2022-09-24T05:19:15;100807.00;;;17.10
60966;BMP180;46834;51.100;6.886;2022-09-24T05:21:41;100807.00;;;17.10
60966;BMP180;46834;51.100;6.886;2022-09-24T05:24:06;100807.00;;;17.10
60966;BMP180;46834;51.100;6.886;2022-09-24T05:26:32;100803.00;;;17.10
60966;BMP180;46834;51.100;6.886;2022-09-24T05:29:17;100792.00;;;17.10
60966;BMP180;46834;51.100;6.886;2022-09-24T05:31:43;100796.00;;;17.10
60966;BMP180;46834;51.100;6.886;2022-09-24T05:34:08;100792.00;;;17.10
60966;BMP180;46834;51.100;6.886;2022-09-24T05:36:35;100796.00;;;17.10
60966;BMP180;46834;51.100;6.886;2022-09-24T05:39:00;100799.00;;;17.10
60966;BMP180;46834;51.100;6.886;2022-09-24T05:41:26;100790.00;;;17.00
60966;BMP180;46834;51.100;6.886;2022-09-24T05:43:52;100803.00;;;17.10
60966;BMP180;46834;51.100;6.886;2022-09-24T05:46:17;100806.00;;;17.00
60966;BMP180;46834;51.100;6.886;2022-09-24T05:48:43;100807.00;;;17.00
60966;BMP180;46834;51.100;6.886;2022-09-24T05:51:09;100808.00;;;17.00
60966;BMP180;46834;51.100;6.886;2022-09-24T05:53:34;100816.00;;;17.00
60966;BMP180;46834;51.100;6.886;2022-09-24T05:56:00;100816.00;;;17.00
60966;BMP180;46834;51.100;6.886;2022-09-24T05:58:26;100822.00;;;17.00
60966;BMP180;46834;51.100;6.886;2022-09-24T06:00:52;100814.00;;;17.00
60966;BMP180;46834;51.100;6.886;2022-09-24T06:03:18;100816.00;;;17.00
60966;BMP180;46834;51.100;6.886;2022-09-24T06:05:49;100815.00;;;17.00
60966;BMP180;46834;51.100;6.886;2022-09-24T06:08:17;100812.00;;;17.00
60966;BMP180;46834;51.100;6.886;2022-09-24T06:10:44;100819.00;;;17.00
60966;BMP180;46834;51.100;6.886;2022-09-24T06:13:12;100820.00;;;17.00
60966;BMP180;46834;51.100;6.886;2022-09-24T06:15:43;100829.00;;;17.00
60966;BMP180;46834;51.100;6.886;2022-09-24T06:18:10;100827.00;;;17.00
60966;BMP180;46834;51.100;6.886;2022-09-24T06:20:36;100822.00;;;17.00
60966;BMP180;46834;51.100;6.886;2022-09-24T06:23:03;100827.00;;;17.00
60966;BMP180;46834;51.100;6.886;2022-09-24T06:25:29;100827.00;;;17.00
60966;BMP180;46834;51.100;6.886;2022-09-24T06:28:01;100829.00;;;17.00
60966;BMP180;46834;51.100;6.886;2022-09-24T06:30:45;100831.00;;;17.00
60966;BMP180;46834;51.100;6.886;2022-09-24T06:33:12;100821.00;;;17.00
60966;BMP180;46834;51.100;6.886;2022-09-24T06:35:41;100822.00;;;17.00
60966;BMP180;46834;51.100;6.886;2022-09-24T06:38:11;100823.00;;;17.10
60966;BMP180;46834;51.100;6.886;2022-09-24T06:40:37;100814.00;;;17.10
60966;BMP180;46834;51.100;6.886;2022-09-24T06:43:05;100827.00;;;17.10
60966;BMP180;46834;51.100;6.886;2022-09-24T06:45:31;100831.00;;;17.20
60966;BMP180;46834;51.100;6.886;2022-09-24T06:48:00;100837.00;;;17.20
60966;BMP180;46834;51.100;6.886;2022-09-24T06:50:29;100835.00;;;17.20
60966;BMP180;46834;51.100;6.886;2022-09-24T06:52:55;100834.00;;;17.20
60966;BMP180;46834;51.100;6.886;2022-09-24T06:55:21;100848.00;;;17.20
60966;BMP180;46834;51.100;6.886;2022-09-24T06:57:48;100844.00;;;17.20
60966;BMP180;46834;51.100;6.886;2022-09-24T07:00:14;100837.00;;;17.20
60966;BMP180;46834;51.100;6.886;2022-09-24T07:02:41;100851.00;;;17.30
60966;BMP180;46834;51.100;6.886;2022-09-24T07:05:08;100850.00;;;17.30
60966;BMP180;46834;51.100;6.886;2022-09-24T07:07:35;100830.00;;;17.30
60966;BMP180;46834;51.100;6.886;2022-09-24T07:10:05;100846.00;;;17.30
60966;BMP180;46834;51.100;6.886;2022-09-24T07:12:34;100845.00;;;17.30
60966;BMP180;46834;51.100;6.886;2022-09-24T07:15:00;100848.00;;;17.40
60966;BMP180;46834;51.100;6.886;2022-09-24T07:17:27;100849.00;;;17.40
60966;BMP180;46834;51.100;6.886;2022-09-24T07:19:54;100838.00;;;17.40
60966;BMP180;46834;51.100;6.886;2022-09-24T07:22:20;100858.00;;;17.40
60966;BMP180;46834;51.100;6.886;2022-09-24T07:24:46;100857.00;;;17.50
60966;BMP180;46834;51.100;6.886;2022-09-24T07:27:13;100856.00;;;17.50
60966;BMP180;46834;51.100;6.886;2022-09-24T07:29:39;100847.00;;;17.50
60966;BMP180;46834;51.100;6.886;2022-09-24T07:32:05;100858.00;;;17.50
60966;BMP180;46834;51.100;6.886;2022-09-24T07:34:31;100862.00;;;17.50
60966;BMP180;46834;51.100;6.886;2022-09-24T07:36:58;100864.00;;;17.50
60966;BMP180;46834;51.100;6.886;2022-09-24T07:39:24;100856.00;;;17.60
60966;BMP180;46834;51.100;6.886;2022-09-24T07:41:51;100874.00;;;17.60
60966;BMP180;46834;51.100;6.886;2022-09-24T07:44:18;100865.00;;;17.60
60966;BMP180;46834;51.100;6.886;2022-09-24T07:46:50;100866.00;;;17.70
60966;BMP180;46834;51.100;6.886;2022-09-24T07:49:16;100877.00;;;17.70
60966;BMP180;46834;51.100;6.886;2022-09-24T07:51:43;100859.00;;;17.80
60966;BMP180;46834;51.100;6.886;2022-09-24T07:54:09;100873.00;;;17.80
60966;BMP180;46834;51.100;6.886;2022-09-24T07:56:36;100880.00;;;17.90
60966;BMP180;46834;51.100;6.886;2022-09-24T07:59:02;100878.00;;;17.90
60966;BMP180;46834;51.100;6.886;2022-09-24T08:01:31;100879.00;;;18.00
60966;BMP180;46834;51.100;6.886;2022-09-24T08:03:57;100877.00;;;18.00
60966;BMP180;46834;51.100;6.886;2022-09-24T08:06:24;100870.00;;;18.00
60966;BMP180;46834;51.100;6.886;2022-09-24T08:08:51;100876.00;;;18.10
60966;BMP180;46834;51.100;6.886;2022-09-24T08:11:21;100871.00;;;18.10
60966;BMP180;46834;51.100;6.886;2022-09-24T08:13:47;100882.00;;;18.20
60966;BMP180;46834;51.100;6.886;2022-09-24T08:16:13;100882.00;;;18.20
60966;BMP180;46834;51.100;6.886;2022-09-24T08:18:39;100879.00;;;18.20
60966;BMP180;46834;51.100;6.886;2022-09-24T08:21:07;100866.00;;;18.20
60966;BMP180;46834;51.100;6.886;2022-09-24T08:23:43;100865.00;;;18.20
60966;BMP180;46834;51.100;6.886;2022-09-24T08:26:11;100864.00;;;18.20
60966;BMP180;46834;51.100;6.886;2022-09-24T08:28:37;100879.00;;;18.30
60966;BMP180;46834;51.100;6.886;2022-09-24T08:31:07;100887.00;;;18.30
60966;BMP180;46834;51.100;6.886;2022-09-24T08:33:36;100883.00;;;18.30
60966;BMP180;46834;51.100;6.886;2022-09-24T08:36:06;100886.00;;;18.30
60966;BMP180;46834;51.100;6.886;2022-09-24T08:38:32;100879.00;;;18.30
60966;BMP180;46834;51.100;6.886;2022-09-24T08:47:19;100881.00;;;18.30
60966;BMP180;46834;51.100;6.886;2022-09-24T08:55:40;100886.00;;;18.40
60966;BMP180;46834;51.100;6.886;2022-09-24T09:03:59;100893.00;;;18.50
60966;BMP180;46834;51.100;6.886;2022-09-24T09:09:15;100884.00;;;18.50
60966;BMP180;46834;51.100;6.886;2022-09-24T09:11:49;100893.00;;;18.60
60966;BMP180;46834;51.100;6.886;2022-09-24T09:20:22;100892.00;;;18.60
60966;BMP180;46834;51.100;6.886;2022-09-24T09:22:51;100889.00;;;18.70
60966;BMP180;46834;51.100;6.886;2022-09-24T09:25:23;100893.00;;;18.70
60966;BMP180;46834;51.100;6.886;2022-09-24T09:28:13;100890.00;;;18.70
60966;BMP180;46834;51.100;6.886;2022-09-24T09:37:05;100906.00;;;18.80
60966;BMP180;46834;51.100;6.886;2022-09-24T09:40:34;100897.00;;;18.80
60966;BMP180;46834;51.100;6.886;2022-09-24T09:43:10;100892.00;;;18.90
60966;BMP180;46834;51.100;6.886;2022-09-24T09:48:55;100892.00;;;19.00
60966;BMP180;46834;51.100;6.886;2022-09-24T09:51:31;100891.00;;;19.00
60966;BMP180;46834;51.100;6.886;2022-09-24T09:54:02;100887.00;;;19.10
60966;BMP180;46834;51.100;6.886;2022-09-24T09:56:34;100887.00;;;19.10
60966;BMP180;46834;51.100;6.886;2022-09-24T10:01:40;100881.00;;;19.20
60966;BMP180;46834;51.100;6.886;2022-09-24T10:04:38;100890.00;;;19.20
60966;BMP180;46834;51.100;6.886;2022-09-24T10:07:16;100885.00;;;19.20
60966;BMP180;46834;51.100;6.886;2022-09-24T10:09:44;100879.00;;;19.30
60966;BMP180;46834;51.100;6.886;2022-09-24T10:12:19;100890.00;;;19.30
60966;BMP180;46834;51.100;6.886;2022-09-24T10:15:21;100899.00;;;19.30
60966;BMP180;46834;51.100;6.886;2022-09-24T10:17:52;100892.00;;;19.40
60966;BMP180;46834;51.100;6.886;2022-09-24T10:20:28;100899.00;;;19.40
60966;BMP180;46834;51.100;6.886;2022-09-24T10:23:04;100889.00;;;19.50
60966;BMP180;46834;51.100;6.886;2022-09-24T10:25:32;100899.00;;;19.50
60966;BMP180;46834;51.100;6.886;2022-09-24T10:28:06;100897.00;;;19.50
60966;BMP180;46834;51.100;6.886;2022-09-24T10:31:05;100886.00;;;19.60
60966;BMP180;46834;51.100;6.886;2022-09-24T10:33:38;100894.00;;;19.60
60966;BMP180;46834;51.100;6.886;2022-09-24T10:36:14;100903.00;;;19.60
60966;BMP180;46834;51.100;6.886;2022-09-24T10:38:40;100898.00;;;19.70
60966;BMP180;46834;51.100;6.886;2022-09-24T10:41:25;100902.00;;;19.70
60966;BMP180;46834;51.100;6.886;2022-09-24T10:43:53;100890.00;;;19.80
60966;BMP180;46834;51.100;6.886;2022-09-24T10:55:32;100884.00;;;19.80
60966;BMP180;46834;51.100;6.886;2022-09-24T11:01:26;100897.00;;;19.90
60966;BMP180;46834;51.100;6.886;2022-09-24T11:19:01;100884.00;;;20.10
60966;BMP180;46834;51.100;6.886;2022-09-24T11:22:15;100874.00;;;20.10
60966;BMP180;46834;51.100;6.886;2022-09-24T11:27:44;100882.00;;;20.20
60966;BMP180;46834;51.100;6.886;2022-09-24T11:30:19;100887.00;;;20.20
60966;BMP180;46834;51.100;6.886;2022-09-24T11:33:12;100883.00;;;20.20
60966;BMP180;46834;51.100;6.886;2022-09-24T11:35:54;100880.00;;;20.30
60966;BMP180;46834;51.100;6.886;2022-09-24T11:38:46;100885.00;;;20.30
60966;BMP180;46834;51.100;6.886;2022-09-24T11:47:35;100884.00;;;20.30
60966;BMP180;46834;51.100;6.886;2022-09-24T11:53:01;100867.00;;;20.30
60966;BMP180;46834;51.100;6.886;2022-09-24T11:59:16;100867.00;;;20.30
60966;BMP180;46834;51.100;6.886;2022-09-24T12:01:54;100865.00;;;20.30
60966;BMP180;46834;51.100;6.886;2022-09-24T12:07:15;100867.00;;;20.30
60966;BMP180;46834;51.100;6.886;2022-09-24T12:15:49;100857.00;;;20.40
60966;BMP180;46834;51.100;6.886;2022-09-24T12:18:24;100856.00;;;20.40
60966;BMP180;46834;51.100;6.886;2022-09-24T12:20:57;100861.00;;;20.40
60966;BMP180;46834;51.100;6.886;2022-09-24T12:23:29;100858.00;;;20.40
60966;BMP180;46834;51.100;6.886;2022-09-24T12:25:59;100853.00;;;20.50
60966;BMP180;46834;51.100;6.886;2022-09-24T12:29:03;100854.00;;;20.40
60966;BMP180;46834;51.100;6.886;2022-09-24T12:32:03;100856.00;;;20.50
60966;BMP180;46834;51.100;6.886;2022-09-24T12:35:01;100849.00;;;20.50
60966;BMP180;46834;51.100;6.886;2022-09-24T12:37:37;100845.00;;;20.60
60966;BMP180;46834;51.100;6.886;2022-09-24T12:40:49;100856.00;;;20.50
60966;BMP180;46834;51.100;6.886;2022-09-24T12:43:28;100862.00;;;20.60
60966;BMP180;46834;51.100;6.886;2022-09-24T12:46:03;100863.00;;;20.70
60966;BMP180;46834;51.100;6.886;2022-09-24T12:48:35;100859.00;;;20.70
60966;BMP180;46834;51.100;6.886;2022-09-24T12:51:05;100849.00;;;20.70
60966;BMP180;46834;51.100;6.886;2022-09-24T12:53:36;100852.00;;;20.70
60966;BMP180;46834;51.100;6.886;2022-09-24T12:56:04;100836.00;;;20.80
60966;BMP180;46834;51.100;6.886;2022-09-24T13:06:43;100849.00;;;20.90
60966;BMP180;46834;51.100;6.886;2022-09-24T13:12:22;100850.00;;;20.90
60966;BMP180;46834;51.100;6.886;2022-09-24T13:15:03;100851.00;;;20.90
60966;BMP180;46834;51.100;6.886;2022-09-24T13:17:34;100844.00;;;21.00
60966;BMP180;46834;51.100;6.886;2022-09-24T13:20:16;100839.00;;;21.00
60966;BMP180;46834;51.100;6.886;2022-09-24T13:22:57;100833.00;;;21.00
60966;BMP180;46834;51.100;6.886;2022-09-24T13:25:24;100844.00;;;21.00
60966;BMP180;46834;51.100;6.886;2022-09-24T13:28:01;100845.00;;;21.00
60966;BMP180;46834;51.100;6.886;2022-09-24T13:30:33;100847.00;;;21.00
60966;BMP180;46834;51.100;6.886;2022-09-24T13:33:24;100844.00;;;21.00
60966;BMP180;46834;51.100;6.886;2022-09-24T13:36:18;100848.00;;;21.00
60966;BMP180;46834;51.100;6.886;2022-09-24T13:42:27;100844.00;;;21.00
60966;BMP180;46834;51.100;6.886;2022-09-24T13:45:10;100837.00;;;21.00
60966;BMP180;46834;51.100;6.886;2022-09-24T13:47:40;100848.00;;;21.00
60966;BMP180;46834;51.100;6.886;2022-09-24T13:50:21;100848.00;;;21.00
60966;BMP180;46834;51.100;6.886;2022-09-24T13:53:00;100843.00;;;21.00
60966;BMP180;46834;51.100;6.886;2022-09-24T13:55:44;100843.00;;;21.00
60966;BMP180;46834;51.100;6.886;2022-09-24T13:58:31;100846.00;;;21.00
60966;BMP180;46834;51.100;6.886;2022-09-24T14:01:02;100839.00;;;21.00
60966;BMP180;46834;51.100;6.886;2022-09-24T14:03:32;100837.00;;;21.00
60966;BMP180;46834;51.100;6.886;2022-09-24T14:06:01;100837.00;;;21.00
60966;BMP180;46834;51.100;6.886;2022-09-24T14:08:34;100844.00;;;21.00
60966;BMP180;46834;51.100;6.886;2022-09-24T14:11:19;100838.00;;;20.90
60966;BMP180;46834;51.100;6.886;2022-09-24T14:13:46;100849.00;;;21.00
60966;BMP180;46834;51.100;6.886;2022-09-24T14:16:20;100850.00;;;20.90
60966;BMP180;46834;51.100;6.886;2022-09-24T14:18:46;100843.00;;;20.90
60966;BMP180;46834;51.100;6.886;2022-09-24T14:21:30;100838.00;;;20.90
60966;BMP180;46834;51.100;6.886;2022-09-24T14:24:26;100837.00;;;20.90
60966;BMP180;46834;51.100;6.886;2022-09-24T14:27:28;100832.00;;;20.90
60966;BMP180;46834;51.100;6.886;2022-09-24T14:29:59;100828.00;;;20.90
60966;BMP180;46834;51.100;6.886;2022-09-24T14:32:33;100836.00;;;20.90
60966;BMP180;46834;51.100;6.886;2022-09-24T14:35:36;100838.00;;;20.80
60966;BMP180;46834;51.100;6.886;2022-09-24T14:38:14;100835.00;;;20.90
60966;BMP180;46834;51.100;6.886;2022-09-24T14:41:06;100835.00;;;20.90
60966;BMP180;46834;51.100;6.886;2022-09-24T14:46:21;100831.00;;;20.90
60966;BMP180;46834;51.100;6.886;2022-09-24T14:48:48;100818.00;;;20.90
60966;BMP180;46834;51.100;6.886;2022-09-24T14:51:29;100826.00;;;20.90
60966;BMP180;46834;51.100;6.886;2022-09-24T14:54:19;100826.00;;;20.90
60966;BMP180;46834;51.100;6.886;2022-09-24T14:56:46;100818.00;;;20.90
60966;BMP180;46834;51.100;6.886;2022-09-24T14:59:14;100825.00;;;20.90
60966;BMP180;46834;51.100;6.886;2022-09-24T15:01:42;100821.00;;;21.00
60966;BMP180;46834;51.100;6.886;2022-09-24T15:04:25;100829.00;;;20.90
60966;BMP180;46834;51.100;6.886;2022-09-24T15:06:51;100835.00;;;21.00
60966;BMP180;46834;51.100;6.886;2022-09-24T15:11:50;100831.00;;;21.00
60966;BMP180;46834;51.100;6.886;2022-09-24T15:16:43;100829.00;;;20.90
60966;BMP180;46834;51.100;6.886;2022-09-24T15:19:20;100844.00;;;20.90
60966;BMP180;46834;51.100;6.886;2022-09-24T15:21:50;100844.00;;;20.90
60966;BMP180;46834;51.100;6.886;2022-09-24T15:24:17;100839.00;;;20.90
60966;BMP180;46834;51.100;6.886;2022-09-24T15:26:56;100837.00;;;20.90
60966;BMP180;46834;51.100;6.886;2022-09-24T15:29:23;100837.00;;;20.90
60966;BMP180;46834;51.100;6.886;2022-09-24T15:31:50;100834.00;;;20.90
60966;BMP180;46834;51.100;6.886;2022-09-24T15:34:16;100830.00;;;20.90
60966;BMP180;46834;51.100;6.886;2022-09-24T15:36:42;100836.00;;;20.90
60966;BMP180;46834;51.100;6.886;2022-09-24T15:39:09;100833.00;;;20.90
60966;BMP180;46834;51.100;6.886;2022-09-24T15:41:35;100814.00;;;20.90
60966;BMP180;46834;51.100;6.886;2022-09-24T15:44:00;100830.00;;;20.90
60966;BMP180;46834;51.100;6.886;2022-09-24T15:46:26;100826.00;;;20.80
60966;BMP180;46834;51.100;6.886;2022-09-24T15:48:52;100835.00;;;20.80
60966;BMP180;46834;51.100;6.886;2022-09-24T15:51:21;100823.00;;;20.80
60966;BMP180;46834;51.100;6.886;2022-09-24T15:53:48;100831.00;;;20.80
60966;BMP180;46834;51.100;6.886;2022-09-24T15:56:14;100837.00;;;20.80
60966;BMP180;46834;51.100;6.886;2022-09-24T15:58:41;100833.00;;;20.80
60966;BMP180;46834;51.100;6.886;2022-09-24T16:01:15;100829.00;;;20.70
60966;BMP180;46834;51.100;6.886;2022-09-24T16:03:42;100833.00;;;20.70
60966;BMP180;46834;51.100;6.886;2022-09-24T16:06:10;100832.00;;;20.70
60966;BMP180;46834;51.100;6.886;2022-09-24T16:08:36;100834.00;;;20.70
60966;BMP180;46834;51.100;6.886;2022-09-24T16:11:02;100836.00;;;20.70
60966;BMP180;46834;51.100;6.886;2022-09-24T16:13:30;100845.00;;;20.70
60966;BMP180;46834;51.100;6.886;2022-09-24T16:15:56;100834.00;;;20.70
60966;BMP180;46834;51.100;6.886;2022-09-24T16:18:21;100844.00;;;20.70
60966;BMP180;46834;51.100;6.886;2022-09-24T16:20:51;100838.00;;;20.70
60966;BMP180;46834;51.100;6.886;2022-09-24T16:23:17;100850.00;;;20.60